LSGG Airport Information

Runway Information
Runway 05 Length 12795 ft width 164 ft
Elevation 1411 ft Threshold 1082 ft Heading 46
Runway 23 Length 12795 ft Width 164 ft
Elevation 1365 ft Threshold 0 ft Heading 226
Runway 05L Length 2700 ft width 98 ft
Elevation 1378 ft Threshold 613 ft Heading 46
Runway 23R Length 2700 ft Width 98 ft
Elevation 1393 ft Threshold 994 ft Heading 226
Airport Frequencies
Type APP Name APP Frequency 120.3 MHZ
Type ARR Name ARR Frequency 136.25 MHZ
Type ATIS Name ATIS Frequency 135.575 MHZ
Type DEP Name DEP Frequency 119.525 MHZ
Type GND Name GND Frequency 121.675 MHZ
Type GTE Name APN Frequency 121.75 MHZ
Type TWR Name TWR Frequency 118.7 MHZ
Airport Navaids
Type NDB Name Gland Frequency 375 KHZ
Type VOR-DME Name Geneva Cointrin Frequency 115750 KHZ
Type VOR-DME Name Passeiry Frequency 116600 KHZ
Airport Weather Information & NOTAM
ADDS - METARS form results

(1156 UTC 17 November 2019)
Data provider http://aviationweather.gov/metar/data/
 
METAR text: LSGG 171150Z 16005KT 4900 -RA BR FEW005 BKN012 BKN023 04/03 Q1004 NOSIG
Conditions at: LSGG (GENEVA/COINTRIN , CH) observed 1150 UTC 17 November 2019
Temperature: 4.0°C (39°F)
Dewpoint: 3.0°C (37°F) [RH = 93%]
Pressure (altimeter): 29.65 inches Hg (1004.0 mb)
Winds: from the SSE (160 degrees) at 6 MPH (5 knots; 2.6 m/s)
Visibility: 3 miles ( 5 km)
Ceiling: 1200 feet AGL
Clouds: few clouds at 500 feet AGL
broken clouds at 1200 feet AGL
broken clouds at 2300 feet AGL
Weather: -RA BR  (light rain, mist)

METAR text: LSGG 171120Z 24004KT 4800 -RA BR SCT008 BKN018 04/04 Q1004 NOSIG
Conditions at: LSGG (GENEVA/COINTRIN , CH) observed 1120 UTC 17 November 2019
Temperature: 4.0°C (39°F)
Dewpoint: 4.0°C (39°F) [RH = 100%]
Pressure (altimeter): 29.65 inches Hg (1004.0 mb)
Winds: from the WSW (240 degrees) at 5 MPH (4 knots; 2.1 m/s)
Visibility: 2.98 miles (4.80 km)
Ceiling: 1800 feet AGL
Clouds: scattered clouds at 800 feet AGL
broken clouds at 1800 feet AGL
Weather: -RA BR  (light rain, mist)

Forecast for: LSGG (GENEVA/COINTRIN , CH)
Text: TAF LSGG 171125Z 1712/1818 24045KT 5000 -RA BR FEW007 BKN020 TX04/1715Z TN02/1806Z TX07/1815Z
Forecast period: 1200 UTC 17 November 2019 to 1800 UTC 18 November 2019
Forecast type: FROM: standard forecast or significant change
Winds: from the WSW (240 degrees) at 52 MPH (45 knots; 23.1 m/s)
Visibility: 3 miles (5 km)
Ceiling: 2000 feet AGL
Clouds: few clouds at 700 feet AGL
broken clouds at 2000 feet AGL
Weather: -RA BR  (light rain, mist)
Text: TEMPO 1712/1716 3500 RA BKN014
Forecast period: 1200 to 1600 UTC 17 November 2019
Forecast type: TEMPORARY: The following changes expected for less than half the time period
Visibility: 2.17 miles (3.49 km)
Ceiling: 1400 feet AGL
Clouds: broken clouds at 1400 feet AGL
Weather: RA  (moderate rain)